Terminal Aerodrome Forecast
Issued by NWS

Home | Current Version | Previous Version | Text Only | Print | Product List | Glossary On
Versions: 1 2 3 4 5 6 7 8 9 10 11 12 13 14 15
000
FTUS43 KFGF 201722
TAFBJI
TAF
KBJI 201722Z 2018/2118 21009KT P6SM BKN200
     FM202200 24011KT P6SM BKN250
     FM210100 26014G23KT P6SM SCT100
     FM210200 28017G25KT P6SM BKN030
     FM211100 31019G27KT P6SM OVC030=

USA.gov is the U.S. government's official web portal to all federal, state and local government web resources and services.